Time;durP1;ratioP1;P1;durP2;ratioP2;P2;SDS_P1;SDS_P2;PMS_P1;PMS_P2;Temp;Humidity;BMP_temperature;BMP_pressure;BME280_temperature;BME280_humidity;BME280_pressure;Samples;Min_cycle;Max_cycle;Signal;HPM_P1;HPM_P2
2022/07/14 00:01:06;;;;;;;3.83;2.40;;;26.90;96.70;;;;;;4861411;29;21138;-81
2022/07/14 00:03:37;;;;;;;9.82;3.00;;;26.90;96.70;;;;;;4872052;29;20053;-81
2022/07/14 00:06:05;;;;;;;4.05;2.70;;;26.90;96.70;;;;;;4871868;29;20109;-81
2022/07/14 00:08:34;;;;;;;2.92;2.38;;;27.00;96.70;;;;;;4876899;29;20064;-81
2022/07/14 00:11:03;;;;;;;2.83;2.38;;;27.00;96.70;;;;;;4870555;29;20049;-81
2022/07/14 00:13:32;;;;;;;8.88;2.88;;;27.00;96.70;;;;;;4874331;29;20045;-82
2022/07/14 00:16:00;;;;;;;4.40;2.47;;;27.00;96.70;;;;;;4870418;29;20049;-81
2022/07/14 00:18:29;;;;;;;2.72;2.40;;;26.90;96.70;;;;;;4874445;29;20057;-80
2022/07/14 00:20:58;;;;;;;3.78;2.38;;;26.90;96.70;;;;;;4873871;29;20041;-81
2022/07/14 00:23:26;;;;;;;2.90;2.45;;;26.80;96.70;;;;;;4885139;29;20649;-81
2022/07/14 00:25:55;;;;;;;3.90;2.33;;;26.70;96.70;;;;;;4874377;29;20396;-80
2022/07/14 00:28:23;;;;;;;4.72;2.60;;;26.70;96.70;;;;;;4874392;29;20069;-80
2022/07/14 00:30:52;;;;;;;4.25;2.60;;;26.70;96.70;;;;;;4873005;29;20061;-80
2022/07/14 00:33:20;;;;;;;4.45;2.67;;;26.80;96.70;;;;;;4873509;29;20057;-81
2022/07/14 00:35:48;;;;;;;5.80;2.58;;;26.80;96.70;;;;;;4874324;29;20165;-81
2022/07/14 00:38:17;;;;;;;4.43;3.00;;;26.90;96.70;;;;;;4877146;29;20088;-81
2022/07/14 00:40:45;;;;;;;4.22;2.83;;;26.90;96.70;;;;;;4872049;29;20053;-81
2022/07/14 00:43:14;;;;;;;4.28;2.30;;;26.80;96.70;;;;;;4871406;29;20073;-81
2022/07/14 00:45:42;;;;;;;4.57;2.90;;;26.80;96.70;;;;;;4871428;29;20135;-81
2022/07/14 00:48:12;;;;;;;7.55;2.58;;;26.70;96.70;;;;;;4870058;29;20045;-81
2022/07/14 00:50:43;;;;;;;5.32;2.80;;;26.60;96.70;;;;;;4855328;29;20045;-81
2022/07/14 00:53:13;;;;;;;4.63;2.38;;;26.50;96.70;;;;;;4873389;29;20081;-81
2022/07/14 00:55:43;;;;;;;5.18;2.90;;;26.40;96.70;;;;;;4872578;29;20049;-81
2022/07/14 00:58:12;;;;;;;4.97;2.40;;;26.30;96.70;;;;;;4868760;29;20385;-81
2022/07/14 01:00:41;;;;;;;6.80;2.40;;;26.30;96.70;;;;;;4872633;29;20079;-81
2022/07/14 01:03:09;;;;;;;4.35;2.50;;;26.30;96.70;;;;;;4873633;29;20464;-80
2022/07/14 01:05:38;;;;;;;5.85;2.28;;;26.30;96.70;;;;;;4874119;29;20084;-81
2022/07/14 01:08:06;;;;;;;2.28;2.08;;;26.30;96.70;;;;;;4857483;29;20083;-80
2022/07/14 01:10:34;;;;;;;4.60;2.30;;;26.30;96.70;;;;;;4873621;29;20987;-81
2022/07/14 01:13:05;;;;;;;2.42;2.20;;;26.30;96.70;;;;;;4874074;29;20044;-82
2022/07/14 01:15:33;;;;;;;4.18;2.53;;;26.20;96.70;;;;;;4857277;29;20048;-81
2022/07/14 01:18:03;;;;;;;3.35;1.90;;;26.20;96.70;;;;;;4857371;29;20054;-81
2022/07/14 01:20:31;;;;;;;6.40;2.38;;;26.20;96.70;;;;;;4872376;29;20198;-80
2022/07/14 01:23:01;;;;;;;4.45;2.10;;;26.20;96.70;;;;;;4869294;29;20608;-82
2022/07/14 01:25:30;;;;;;;4.30;2.15;;;26.00;96.70;;;;;;4870949;29;20056;-81
2022/07/14 01:27:58;;;;;;;2.38;1.90;;;26.00;96.70;;;;;;4871830;29;20056;-80
2022/07/14 01:30:34;;;;;;;5.05;2.17;;;26.00;96.70;;;;;;4870397;29;20053;-79
2022/07/14 01:33:03;;;;;;;2.47;2.05;;;26.00;96.70;;;;;;4871697;29;20064;-80
2022/07/14 01:35:31;;;;;;;4.00;2.20;;;26.10;96.70;;;;;;4856417;29;20059;-81
2022/07/14 01:38:00;;;;;;;3.50;2.00;;;26.10;96.70;;;;;;4872575;29;20128;-81
2022/07/14 01:40:28;;;;;;;3.00;1.95;;;26.10;96.70;;;;;;4856403;29;20049;-81
2022/07/14 01:42:57;;;;;;;2.50;2.15;;;26.20;96.70;;;;;;4878102;29;20498;-81
2022/07/14 01:45:25;;;;;;;3.63;1.90;;;25.90;96.70;;;;;;4871408;29;20045;-81
2022/07/14 01:47:53;;;;;;;3.08;2.17;;;26.00;96.70;;;;;;4856126;29;20080;-80
2022/07/14 01:50:21;;;;;;;3.35;2.40;;;25.90;96.70;;;;;;4867151;29;20624;-81
2022/07/14 01:52:49;;;;;;;3.60;2.10;;;25.90;96.70;;;;;;4871356;29;20627;-81
2022/07/14 01:55:21;;;;;;;3.63;2.05;;;25.80;96.70;;;;;;4858366;29;20052;-80
2022/07/14 01:57:49;;;;;;;3.60;2.08;;;25.90;96.70;;;;;;4866899;29;20065;-80
2022/07/14 02:00:18;;;;;;;2.30;2.03;;;25.80;96.70;;;;;;4871256;29;20136;-81
2022/07/14 02:02:58;;;;;;;2.47;1.77;;;25.80;96.70;;;;;;4873759;29;20518;-81
2022/07/14 02:05:27;;;;;;;2.75;2.13;;;25.60;96.70;;;;;;4872157;29;20060;-81
2022/07/14 02:07:55;;;;;;;4.28;1.95;;;25.70;96.70;;;;;;4871118;29;20045;-80
2022/07/14 02:13:23;;;;;;;2.55;2.03;;;25.60;96.70;;;;;;4870316;29;20055;-80
2022/07/14 02:15:51;;;;;;;2.28;1.67;;;25.60;96.70;;;;;;4871371;29;20056;-80
2022/07/14 02:18:19;;;;;;;3.70;2.28;;;25.70;96.70;;;;;;4856313;29;20152;-79
2022/07/14 02:20:48;;;;;;;2.53;1.65;;;25.60;96.70;;;;;;4853977;29;20049;-79
2022/07/14 02:23:16;;;;;;;2.60;1.83;;;25.60;96.70;;;;;;4872566;29;20057;-80
2022/07/14 02:25:45;;;;;;;2.15;1.63;;;25.70;96.70;;;;;;4855361;29;20519;-80
2022/07/14 02:28:14;;;;;;;2.58;1.60;;;25.60;96.70;;;;;;4870942;29;20052;-80
2022/07/14 02:30:42;;;;;;;3.28;2.00;;;25.70;96.70;;;;;;4870609;29;20139;-80
2022/07/14 02:33:10;;;;;;;3.28;1.70;;;25.60;96.70;;;;;;4871966;29;20135;-80
2022/07/14 02:35:38;;;;;;;2.38;2.03;;;25.40;96.70;;;;;;4870490;29;20037;-81
2022/07/14 02:38:06;;;;;;;1.75;1.60;;;25.30;96.70;;;;;;4855555;29;20532;-80
2022/07/14 02:40:34;;;;;;;2.10;1.90;;;25.30;96.70;;;;;;4871420;29;20037;-80
2022/07/14 02:43:03;;;;;;;2.65;1.90;;;25.20;96.70;;;;;;4870637;29;20051;-80
2022/07/14 02:45:32;;;;;;;3.17;2.13;;;25.10;96.70;;;;;;4854774;29;20057;-80
2022/07/14 02:48:00;;;;;;;4.20;2.10;;;25.20;96.70;;;;;;4868690;29;20053;-80
2022/07/14 02:50:29;;;;;;;3.67;1.95;;;25.30;96.70;;;;;;4870137;29;20427;-81
2022/07/14 02:52:57;;;;;;;2.00;1.80;;;25.30;96.70;;;;;;4870232;29;20515;-80
2022/07/14 02:55:34;;;;;;;2.85;1.92;;;25.20;96.70;;;;;;4885293;29;20568;-80
2022/07/14 02:58:06;;;;;;;6.15;2.80;;;25.10;96.70;;;;;;4867086;29;20068;-80
2022/07/14 03:00:35;;;;;;;2.95;2.40;;;25.20;96.70;;;;;;4865659;29;20075;-80
2022/07/14 03:03:06;;;;;;;2.95;2.42;;;25.10;96.70;;;;;;4875812;29;20060;-80
2022/07/14 03:05:34;;;;;;;3.33;2.13;;;25.00;96.70;;;;;;4867977;29;20088;-80
2022/07/14 03:08:02;;;;;;;2.55;2.28;;;25.10;96.70;;;;;;4855050;29;20642;-80
2022/07/14 03:10:31;;;;;;;4.10;2.60;;;25.10;96.70;;;;;;4868852;29;20767;-80
2022/07/14 03:12:59;;;;;;;3.17;2.70;;;24.90;96.70;;;;;;4867797;29;20048;-80
2022/07/14 03:15:29;;;;;;;6.72;2.70;;;24.80;96.70;;;;;;4858232;29;20053;-80
2022/07/14 03:17:58;;;;;;;4.95;2.50;;;24.80;96.70;;;;;;4885552;29;20092;-80
2022/07/14 03:20:26;;;;;;;3.10;2.47;;;24.70;96.70;;;;;;4885356;29;20060;-80
2022/07/14 03:22:54;;;;;;;6.78;2.83;;;24.60;96.70;;;;;;4869730;29;20056;-80
2022/07/14 03:25:25;;;;;;;3.83;2.28;;;24.50;96.70;;;;;;4863179;29;20055;-81
2022/07/14 03:27:54;;;;;;;4.22;2.63;;;24.50;96.70;;;;;;4885454;29;20051;-80
2022/07/14 03:30:29;;;;;;;2.72;2.45;;;24.50;96.70;;;;;;4869663;29;20682;-80
2022/07/14 03:32:57;;;;;;;3.45;2.92;;;24.60;96.70;;;;;;4869520;29;20507;-80
2022/07/14 03:35:26;;;;;;;4.53;2.30;;;24.60;96.70;;;;;;4869440;29;20064;-80
2022/07/14 03:37:54;;;;;;;3.05;2.20;;;24.40;96.70;;;;;;4869251;29;20061;-80
2022/07/14 03:40:44;;;;;;;4.82;2.65;;;24.30;96.70;;;;;;4856471;29;20132;-80
2022/07/14 03:43:13;;;;;;;5.07;2.22;;;24.40;96.70;;;;;;4869555;29;20049;-80
2022/07/14 03:45:42;;;;;;;2.92;2.15;;;24.60;96.70;;;;;;4873440;29;20697;-81
2022/07/14 03:48:13;;;;;;;2.65;2.42;;;24.70;96.70;;;;;;4882984;29;20496;-80
2022/07/14 03:50:45;;;;;;;2.42;2.22;;;24.80;96.70;;;;;;4849703;29;20053;-81
2022/07/14 03:53:14;;;;;;;4.07;2.33;;;24.90;96.70;;;;;;4858231;29;20074;-81
2022/07/14 03:55:42;;;;;;;4.53;2.25;;;24.80;96.70;;;;;;4860457;29;20045;-81
2022/07/14 03:58:19;;;;;;;3.10;2.45;;;24.70;96.70;;;;;;4872608;29;20059;-81
2022/07/14 04:00:49;;;;;;;2.85;2.63;;;24.70;96.70;;;;;;4878072;29;20159;-82
2022/07/14 04:03:18;;;;;;;4.43;2.70;;;24.70;96.70;;;;;;4886894;29;20509;-79
2022/07/14 04:05:47;;;;;;;5.70;2.40;;;24.60;96.70;;;;;;4889087;29;20056;-79
2022/07/14 04:08:17;;;;;;;2.45;2.25;;;24.70;96.70;;;;;;4875758;29;20049;-79
2022/07/14 04:10:55;;;;;;;2.45;2.22;;;24.50;96.70;;;;;;4873506;29;20076;-79
2022/07/14 04:13:23;;;;;;;4.07;2.50;;;24.50;96.70;;;;;;4858400;29;20073;-79
2022/07/14 04:15:52;;;;;;;5.05;2.30;;;24.50;96.70;;;;;;4873738;29;20642;-79
2022/07/14 04:18:21;;;;;;;3.85;2.50;;;24.70;96.70;;;;;;4873151;29;20060;-80
2022/07/14 04:20:52;;;;;;;4.07;2.78;;;24.70;96.70;;;;;;4870179;29;20076;-80
2022/07/14 04:23:21;;;;;;;3.47;2.42;;;24.60;96.70;;;;;;4869342;29;20049;-79
2022/07/14 04:25:50;;;;;;;3.03;2.83;;;24.70;96.70;;;;;;4857362;29;20048;-80
2022/07/14 04:28:19;;;;;;;5.03;2.80;;;24.60;96.70;;;;;;4872890;29;20137;-80
2022/07/14 04:30:47;;;;;;;6.38;3.13;;;24.70;96.70;;;;;;4872452;29;20057;-80
2022/07/14 04:33:20;;;;;;;5.57;2.58;;;24.60;96.70;;;;;;4887903;29;20053;-80
2022/07/14 04:35:51;;;;;;;4.32;2.55;;;24.60;96.70;;;;;;4887757;29;20057;-80
2022/07/14 04:38:20;;;;;;;3.55;2.58;;;24.60;96.70;;;;;;4868469;29;20334;-80
2022/07/14 04:40:54;;;;;;;5.32;2.70;;;24.60;96.70;;;;;;4861959;29;20144;-80
2022/07/14 04:43:24;;;;;;;2.72;2.53;;;24.50;96.70;;;;;;4873962;29;20149;-80
2022/07/14 04:45:57;;;;;;;3.50;3.15;;;24.40;96.70;;;;;;4857947;29;20464;-79
2022/07/14 04:48:27;;;;;;;5.88;3.13;;;24.30;96.70;;;;;;4873112;29;20155;-81
2022/07/14 04:53:42;;;;;;;6.88;3.85;;;24.40;96.70;;;;;;4869497;29;20049;-80
2022/07/14 04:56:32;;;;;;;7.07;4.60;;;24.60;96.70;;;;;;4870943;29;20060;-79
2022/07/14 04:59:20;;;;;;;6.78;4.35;;;24.60;96.70;;;;;;4886105;29;20049;-80
2022/07/14 05:01:49;;;;;;;6.90;3.67;;;24.70;96.70;;;;;;4872827;29;20048;-79
2022/07/14 05:04:19;;;;;;;5.47;3.13;;;24.60;96.70;;;;;;4868106;29;20060;-79
2022/07/14 05:06:49;;;;;;;4.63;3.20;;;24.40;96.70;;;;;;4872545;29;20511;-79
2022/07/14 05:09:18;;;;;;;3.80;2.90;;;24.50;96.70;;;;;;4873421;29;20049;-80
2022/07/14 05:11:46;;;;;;;6.57;3.45;;;24.50;96.70;;;;;;4857772;29;20045;-79
2022/07/14 05:14:15;;;;;;;6.03;3.00;;;24.60;96.70;;;;;;4871964;29;20508;-80
2022/07/14 05:16:44;;;;;;;4.25;3.05;;;24.40;96.70;;;;;;4855236;29;20038;-80
2022/07/14 05:19:34;;;;;;;3.33;3.00;;;24.40;96.70;;;;;;4866763;29;20053;-81
2022/07/14 05:22:03;;;;;;;5.97;3.00;;;24.40;96.70;;;;;;4859653;29;20056;-82
2022/07/14 05:24:32;;;;;;;5.90;3.50;;;24.40;96.70;;;;;;4870819;29;20064;-82
2022/07/14 05:27:02;;;;;;;3.60;3.28;;;24.30;96.70;;;;;;4871697;29;20088;-78
2022/07/14 05:29:34;;;;;;;6.18;3.42;;;24.50;96.70;;;;;;4871824;29;20100;-78
2022/07/14 05:32:04;;;;;;;7.53;3.45;;;24.50;96.70;;;;;;4872291;29;20053;-79
2022/07/14 05:34:41;;;;;;;5.18;3.53;;;24.50;96.70;;;;;;4887775;29;20144;-78
2022/07/14 05:37:11;;;;;;;5.80;3.33;;;24.50;96.70;;;;;;4872444;29;20049;-79
2022/07/14 05:39:40;;;;;;;7.55;3.63;;;24.50;96.70;;;;;;4868486;29;20053;-78
2022/07/14 05:42:08;;;;;;;3.92;3.20;;;24.50;96.70;;;;;;4870159;29;20559;-79
2022/07/14 05:44:36;;;;;;;6.05;3.08;;;24.60;96.70;;;;;;4871533;29;20592;-79
2022/07/14 05:47:05;;;;;;;8.15;3.20;;;24.80;96.70;;;;;;4871820;29;20265;-77
2022/07/14 05:49:38;;;;;;;4.60;3.13;;;24.90;96.70;;;;;;4873857;29;20053;-79
2022/07/14 05:52:07;;;;;;;6.78;3.00;;;24.90;96.70;;;;;;4872197;29;20544;-78
2022/07/14 05:54:35;;;;;;;3.35;2.63;;;24.90;96.70;;;;;;4852127;29;20559;-79
2022/07/14 05:57:04;;;;;;;4.78;3.15;;;24.80;96.70;;;;;;4871328;29;20068;-81
2022/07/14 05:59:33;;;;;;;5.47;2.80;;;24.90;96.70;;;;;;4872868;29;20076;-81
2022/07/14 06:02:13;;;;;;;5.75;3.00;;;25.00;96.70;;;;;;4869420;29;20080;-81
2022/07/14 06:04:43;;;;;;;7.80;2.60;;;25.00;96.70;;;;;;4854648;29;20052;-82
2022/07/14 06:07:11;;;;;;;4.80;2.55;;;25.20;96.70;;;;;;4870720;29;20045;-81
2022/07/14 06:09:44;;;;;;;4.90;2.50;;;25.30;96.70;;;;;;4861288;29;20060;-82
2022/07/14 06:12:15;;;;;;;5.40;2.65;;;25.20;96.70;;;;;;4870398;29;20048;-81
2022/07/14 06:14:45;;;;;;;4.95;2.20;;;25.40;96.70;;;;;;4856276;29;20060;-81
2022/07/14 06:17:15;;;;;;;5.15;2.33;;;25.50;96.70;;;;;;4885732;29;20430;-80
2022/07/14 06:19:44;;;;;;;7.60;2.45;;;25.60;96.70;;;;;;4870983;29;20593;-81
2022/07/14 06:22:15;;;;;;;7.40;2.58;;;25.60;96.70;;;;;;4870316;29;20045;-82
2022/07/14 06:24:44;;;;;;;4.05;2.25;;;25.70;96.70;;;;;;4856162;29;20049;-81
2022/07/14 06:27:21;;;;;;;7.68;2.88;;;25.90;96.70;;;;;;4871172;29;20747;-81
2022/07/14 06:29:51;;;;;;;4.47;2.60;;;26.00;96.70;;;;;;4871672;29;20065;-81
2022/07/14 06:32:19;;;;;;;4.78;1.95;;;26.20;96.70;;;;;;4869940;29;20081;-82
2022/07/14 06:34:52;;;;;;;7.22;2.20;;;26.20;96.70;;;;;;4867204;29;20073;-81
2022/07/14 06:37:22;;;;;;;4.65;2.30;;;26.20;96.70;;;;;;4867120;29;20073;-81
2022/07/14 06:39:51;;;;;;;3.72;2.22;;;26.20;96.70;;;;;;4875191;29;20055;-81
2022/07/14 06:42:20;;;;;;;3.47;1.92;;;26.40;96.70;;;;;;4854007;29;20073;-81
2022/07/14 06:45:02;;;;;;;5.75;2.03;;;26.50;96.70;;;;;;4870648;29;20140;-80
2022/07/14 06:47:30;;;;;;;5.40;1.88;;;26.50;96.70;;;;;;4876866;29;20048;-79
2022/07/14 06:50:00;;;;;;;2.35;1.67;;;26.50;96.70;;;;;;4868600;29;20118;-78
2022/07/14 06:52:29;;;;;;;5.05;2.20;;;26.60;96.70;;;;;;4869462;29;20709;-79
2022/07/14 06:54:58;;;;;;;2.10;1.60;;;26.60;96.70;;;;;;4870183;29;20500;-80
2022/07/14 06:57:26;;;;;;;3.13;1.65;;;26.70;96.70;;;;;;4867578;29;20045;-78
2022/07/14 06:59:55;;;;;;;3.88;1.52;;;26.80;96.70;;;;;;4854269;29;20060;-78
2022/07/14 07:02:23;;;;;;;2.00;1.50;;;26.70;96.70;;;;;;4870451;29;20053;-80
2022/07/14 07:07:39;;;;;;;3.33;1.73;;;26.80;96.70;;;;;;4868572;29;20418;-82
2022/07/14 07:10:08;;;;;;;8.60;2.03;;;26.80;96.70;;;;;;4870426;29;20041;-77
2022/07/14 07:12:36;;;;;;;5.28;1.70;;;26.80;96.70;;;;;;4870208;29;20056;-78
2022/07/14 07:15:06;;;;;;;4.45;1.80;;;26.90;96.70;;;;;;4870370;29;20053;-76
2022/07/14 07:17:34;;;;;;;2.78;1.75;;;27.00;96.70;;;;;;4871143;29;20136;-75
2022/07/14 07:20:02;;;;;;;3.47;1.70;;;27.00;96.70;;;;;;4853056;29;20101;-77
2022/07/14 07:22:30;;;;;;;4.50;1.85;;;27.00;96.70;;;;;;4869796;29;20559;-78
2022/07/14 07:25:00;;;;;;;4.80;1.70;;;27.10;96.70;;;;;;4875582;29;20147;-76
2022/07/14 07:27:28;;;;;;;3.97;2.03;;;27.20;96.70;;;;;;4868792;29;20143;-77
2022/07/14 07:29:56;;;;;;;6.40;2.20;;;27.30;96.70;;;;;;4870694;29;20053;-76
2022/07/14 07:32:24;;;;;;;2.78;2.00;;;27.40;96.70;;;;;;4865340;29;20501;-77
2022/07/14 07:34:52;;;;;;;2.67;1.83;;;27.40;96.70;;;;;;4869069;29;20554;-76
2022/07/14 07:37:21;;;;;;;3.72;1.65;;;27.40;96.70;;;;;;4848942;29;20415;-76
2022/07/14 07:39:56;;;;;;;2.47;1.83;;;27.40;96.70;;;;;;4868254;29;20060;-77
2022/07/14 07:42:26;;;;;;;3.95;1.90;;;27.40;96.70;;;;;;4869702;29;20144;-76
2022/07/14 07:44:55;;;;;;;2.15;1.73;;;27.50;96.70;;;;;;4867177;29;20049;-76
2022/07/14 07:47:23;;;;;;;3.53;1.55;;;27.50;96.70;;;;;;4869183;29;20044;-78
2022/07/14 07:49:52;;;;;;;3.10;1.65;;;27.60;96.70;;;;;;4869036;29;20156;-78
2022/07/14 07:52:20;;;;;;;3.00;2.15;;;27.70;96.70;;;;;;4854103;29;20053;-78
2022/07/14 07:54:49;;;;;;;3.58;1.85;;;27.80;96.70;;;;;;4865893;29;20056;-78
2022/07/14 07:57:38;;;;;;;4.00;2.30;;;27.90;96.70;;;;;;4869484;29;20077;-77
2022/07/14 08:00:08;;;;;;;6.28;2.30;;;28.00;96.70;;;;;;4869987;29;20049;-77
2022/07/14 08:02:45;;;;;;;2.83;1.42;;;28.10;96.70;;;;;;4868114;29;20079;-81
2022/07/14 08:05:13;;;;;;;2.13;1.75;;;28.10;96.70;;;;;;4875537;29;20049;-80
2022/07/14 08:08:01;;;;;;;2.33;1.92;;;28.10;96.70;;;;;;4884200;29;20045;-78
2022/07/14 08:10:30;;;;;;;3.85;1.98;;;28.20;96.70;;;;;;4871295;29;20113;-79
2022/07/14 08:12:59;;;;;;;3.42;1.50;;;28.30;96.70;;;;;;4856375;29;20053;-81
2022/07/14 08:15:28;;;;;;;6.35;2.05;;;28.40;96.70;;;;;;4870237;29;20053;-80
2022/07/14 08:17:56;;;;;;;4.80;1.98;;;28.40;96.70;;;;;;4854450;29;20041;-81
2022/07/14 08:20:24;;;;;;;3.25;2.00;;;28.40;96.70;;;;;;4869638;29;20296;-78
2022/07/14 08:22:52;;;;;;;4.38;2.05;;;28.40;96.70;;;;;;4853261;29;20049;-79
2022/07/14 08:25:21;;;;;;;4.80;2.28;;;28.40;96.70;;;;;;4869196;29;20926;-79
2022/07/14 08:27:49;;;;;;;3.10;2.13;;;28.40;96.70;;;;;;4873086;29;20445;-80
2022/07/14 08:30:18;;;;;;;14.68;3.30;;;28.50;96.70;;;;;;4870229;29;20060;-77
2022/07/14 08:32:51;;;;;;;5.13;2.35;;;28.50;96.70;;;;;;4883872;29;20049;-80
2022/07/14 08:35:21;;;;;;;3.63;2.10;;;28.70;96.70;;;;;;4870063;29;20125;-79
2022/07/14 08:37:49;;;;;;;2.75;1.95;;;28.70;96.70;;;;;;4868833;29;20053;-79
2022/07/14 08:40:18;;;;;;;6.82;2.28;;;28.80;96.70;;;;;;4871364;29;20147;-80
2022/07/14 08:42:49;;;;;;;3.50;2.15;;;28.90;96.70;;;;;;4873104;29;20113;-80
2022/07/14 08:45:21;;;;;;;3.25;1.83;;;28.90;96.70;;;;;;4872456;29;20755;-78
2022/07/14 08:47:50;;;;;;;3.78;1.90;;;29.00;96.70;;;;;;4875000;29;20057;-78
2022/07/14 08:50:20;;;;;;;4.70;1.98;;;29.10;96.70;;;;;;4869558;29;20109;-77
2022/07/14 08:52:49;;;;;;;2.95;1.77;;;29.20;96.70;;;;;;4871617;29;20079;-81
2022/07/14 08:55:18;;;;;;;4.63;1.45;;;29.20;96.70;;;;;;4873111;29;20779;-83
2022/07/14 08:57:46;;;;;;;3.20;1.92;;;29.20;96.70;;;;;;4874403;29;20049;-80
2022/07/14 09:00:17;;;;;;;3.47;1.60;;;29.30;96.70;;;;;;4873954;29;20041;-82
2022/07/14 09:02:50;;;;;;;3.45;1.60;;;29.40;96.70;;;;;;4873456;29;20478;-82
2022/07/14 09:05:41;;;;;;;5.25;1.88;;;29.40;96.70;;;;;;4873360;29;20049;-83
2022/07/14 09:08:11;;;;;;;3.40;1.85;;;29.50;96.70;;;;;;4873477;29;20184;-84
2022/07/14 09:10:40;;;;;;;3.63;1.92;;;29.70;96.70;;;;;;4871690;29;20148;-82
2022/07/14 09:13:31;;;;;;;4.97;2.03;;;29.90;96.70;;;;;;4873130;29;20044;-84
2022/07/14 09:16:14;;;;;;;4.07;1.77;;;29.90;96.70;;;;;;4881522;29;20504;-82
2022/07/14 09:19:02;;;;;;;6.18;2.20;;;29.90;96.70;;;;;;4871130;29;21486;-79
2022/07/14 09:21:31;;;;;;;2.95;1.70;;;30.00;96.70;;;;;;4873650;29;20051;-80
2022/07/14 09:24:00;;;;;;;3.38;1.98;;;30.10;96.70;;;;;;4871041;29;20069;-79
2022/07/14 09:26:28;;;;;;;3.35;1.80;;;30.30;96.70;;;;;;4871944;29;20038;-80
2022/07/14 09:28:57;;;;;;;6.00;2.55;;;30.20;96.70;;;;;;4870485;29;20053;-79
2022/07/14 09:31:27;;;;;;;4.55;2.08;;;30.20;96.70;;;;;;4855054;29;20049;-81
2022/07/14 09:33:58;;;;;;;3.97;2.30;;;30.30;96.30;;;;;;4871668;29;20041;-81
2022/07/14 09:36:29;;;;;;;7.68;2.72;;;30.40;95.90;;;;;;4872652;29;20457;-81
2022/07/14 09:38:59;;;;;;;7.57;2.60;;;30.40;95.20;;;;;;4885765;29;20065;-81
2022/07/14 09:41:29;;;;;;;4.05;2.60;;;30.60;94.60;;;;;;4873085;29;20053;-81
2022/07/14 09:44:11;;;;;;;6.45;2.90;;;30.70;94.80;;;;;;4873582;29;20314;-79
2022/07/14 09:46:48;;;;;;;6.97;3.28;;;30.80;93.80;;;;;;4870969;29;20135;-81
2022/07/14 09:49:19;;;;;;;5.75;2.80;;;30.90;93.70;;;;;;4871763;29;20049;-79
2022/07/14 09:52:04;;;;;;;6.57;2.97;;;30.90;93.40;;;;;;4872161;29;20520;-80
2022/07/14 09:54:45;;;;;;;5.95;2.67;;;30.90;92.70;;;;;;4869413;29;20053;-79
2022/07/14 09:57:27;;;;;;;5.05;2.67;;;31.00;93.60;;;;;;4870636;29;20053;-81
2022/07/14 09:59:57;;;;;;;6.35;2.35;;;31.10;93.40;;;;;;4870339;29;20143;-80
2022/07/14 10:02:27;;;;;;;5.25;2.47;;;31.30;91.70;;;;;;4871905;29;20156;-83
2022/07/14 10:05:02;;;;;;;5.25;2.55;;;31.20;91.40;;;;;;4874957;29;20045;-81
2022/07/14 10:07:35;;;;;;;4.40;2.38;;;31.30;91.40;;;;;;4870294;29;20580;-81
2022/07/14 10:10:06;;;;;;;4.75;1.95;;;31.30;91.10;;;;;;4868068;29;20049;-80
2022/07/14 10:12:38;;;;;;;3.42;2.13;;;31.30;91.10;;;;;;4868954;29;20051;-80
2022/07/14 10:15:08;;;;;;;6.45;2.30;;;31.30;91.60;;;;;;4871655;29;20128;-80
2022/07/14 10:17:39;;;;;;;3.85;2.10;;;31.40;90.80;;;;;;4869518;29;20045;-81
2022/07/14 10:20:12;;;;;;;4.85;2.00;;;31.30;91.70;;;;;;4869711;29;20433;-81
2022/07/14 10:22:41;;;;;;;3.80;1.90;;;31.60;91.40;;;;;;4859575;29;20092;-80
2022/07/14 10:25:10;;;;;;;3.70;1.92;;;31.80;91.50;;;;;;4855265;29;20052;-81
2022/07/14 10:27:40;;;;;;;4.20;2.28;;;31.90;91.30;;;;;;4870353;29;20575;-79
2022/07/14 10:30:10;;;;;;;3.47;2.22;;;32.00;91.50;;;;;;4871732;29;20073;-80
2022/07/14 10:32:46;;;;;;;5.70;2.10;;;32.20;91.30;;;;;;4872157;29;20579;-80
2022/07/14 10:35:28;;;;;;;2.50;2.13;;;32.30;90.70;;;;;;4870501;29;20041;-80
2022/07/14 10:38:25;;;;;;;2.67;1.95;;;32.50;91.00;;;;;;4884307;29;20076;-81
2022/07/14 10:41:04;;;;;;;3.45;2.22;;;32.50;90.90;;;;;;4866676;29;20674;-80
2022/07/14 10:43:54;;;;;;;6.07;2.20;;;32.60;90.40;;;;;;4870603;29;20047;-81
2022/07/14 10:46:37;;;;;;;2.72;1.90;;;32.70;90.00;;;;;;4865006;29;20083;-80
2022/07/14 10:49:07;;;;;;;5.80;1.98;;;32.80;89.90;;;;;;4868970;29;20059;-79
2022/07/14 10:51:45;;;;;;;2.15;1.95;;;32.90;90.00;;;;;;4865204;29;20540;-80
2022/07/14 10:54:15;;;;;;;5.32;2.15;;;33.10;89.10;;;;;;4870097;29;20088;-80
2022/07/14 10:57:12;;;;;;;2.58;1.70;;;33.10;89.40;;;;;;4870066;29;20052;-80
2022/07/14 10:59:41;;;;;;;3.05;1.90;;;33.20;88.60;;;;;;4868902;29;20045;-81
2022/07/14 11:02:36;;;;;;;1.98;1.77;;;33.20;88.50;;;;;;4868703;29;20049;-80
2022/07/14 11:05:17;;;;;;;4.97;1.63;;;33.30;88.60;;;;;;4867145;29;20081;-80
2022/07/14 11:07:52;;;;;;;1.88;1.75;;;33.50;87.80;;;;;;4866577;29;20131;-81
2022/07/14 11:11:08;;;;;;;3.30;1.85;;;33.60;87.60;;;;;;4869278;29;20045;-81
2022/07/14 11:14:07;;;;;;;4.07;2.00;;;33.60;87.20;;;;;;4869315;29;20099;-80
2022/07/14 11:16:56;;;;;;;6.57;2.00;;;33.50;86.80;;;;;;4869673;29;20059;-79
2022/07/14 11:19:31;;;;;;;3.85;1.85;;;33.60;87.20;;;;;;4868962;29;20041;-82
2022/07/14 11:22:14;;;;;;;5.07;2.00;;;34.10;88.20;;;;;;4884904;29;20048;-82
2022/07/14 11:24:53;;;;;;;3.35;2.05;;;34.10;86.30;;;;;;4863139;29;20049;-82
2022/07/14 11:27:43;;;;;;;4.55;1.98;;;34.10;86.30;;;;;;4869575;29;20056;-83
2022/07/14 11:30:29;;;;;;;3.17;1.67;;;34.20;86.10;;;;;;4869508;29;20085;-83
2022/07/14 11:33:02;;;;;;;2.47;1.55;;;34.40;85.80;;;;;;4866692;29;20053;-82
2022/07/14 11:39:22;;;;;;;4.70;1.98;;;34.40;84.70;;;;;;4850440;29;20089;-81
2022/07/14 11:42:03;;;;;;;2.80;1.73;;;34.50;84.50;;;;;;4852957;29;20065;-81
2022/07/14 11:44:51;;;;;;;2.92;1.65;;;34.70;84.10;;;;;;4849960;29;20084;-82
2022/07/14 11:47:22;;;;;;;3.83;1.73;;;34.70;84.10;;;;;;4846352;29;20053;-83
2022/07/14 11:49:56;;;;;;;2.63;1.98;;;34.50;84.30;;;;;;4855575;29;20113;-84
2022/07/14 11:52:38;;;;;;;5.95;1.77;;;34.70;84.50;;;;;;4842752;29;20061;-85
2022/07/14 11:55:09;;;;;;;2.17;1.70;;;34.90;84.00;;;;;;4854348;29;20131;-83
2022/07/14 11:57:39;;;;;;;1.95;1.83;;;35.00;83.40;;;;;;4855561;29;20052;-83
2022/07/14 12:00:09;;;;;;;3.80;2.15;;;35.00;82.70;;;;;;4836926;29;20164;-84
2022/07/14 12:02:49;;;;;;;2.58;1.60;;;35.10;83.00;;;;;;4870786;29;20056;-83
2022/07/14 12:05:21;;;;;;;2.78;1.70;;;35.00;82.30;;;;;;4864134;29;20132;-82
2022/07/14 12:07:50;;;;;;;1.65;1.50;;;35.10;82.00;;;;;;4884773;29;20045;-78
2022/07/14 12:10:35;;;;;;;1.77;1.65;;;35.20;81.90;;;;;;4867929;29;20094;-79
2022/07/14 12:13:05;;;;;;;2.20;2.00;;;35.30;82.20;;;;;;4869882;29;20045;-80
2022/07/14 12:15:33;;;;;;;2.65;1.80;;;35.20;81.60;;;;;;4856221;29;20389;-81
2022/07/14 12:18:04;;;;;;;3.70;1.90;;;35.30;82.00;;;;;;4867202;29;20060;-84
2022/07/14 12:20:38;;;;;;;3.58;1.70;;;35.50;82.40;;;;;;4860549;29;20041;-84
2022/07/14 12:23:07;;;;;;;1.67;1.50;;;35.70;81.30;;;;;;4875644;29;20516;-84
2022/07/14 12:25:36;;;;;;;3.42;1.92;;;35.90;79.30;;;;;;4876220;29;20045;-84
2022/07/14 12:28:09;;;;;;;2.30;1.70;;;35.80;79.80;;;;;;4890207;29;20603;-84
2022/07/14 12:30:46;;;;;;;1.95;1.80;;;35.80;80.50;;;;;;4875461;29;20052;-82
2022/07/14 12:33:16;;;;;;;3.95;1.60;;;35.70;80.90;;;;;;4875018;29;20053;-83
2022/07/14 12:35:47;;;;;;;5.53;1.85;;;35.80;80.70;;;;;;4879520;29;20488;-83
2022/07/14 12:38:16;;;;;;;3.65;2.00;;;36.00;81.20;;;;;;4860773;29;20084;-82
2022/07/14 12:40:48;;;;;;;5.07;2.40;;;35.90;82.30;;;;;;4875083;29;20419;-83
2022/07/14 12:43:23;;;;;;;2.92;2.45;;;36.00;82.30;;;;;;4874373;29;20060;-82
2022/07/14 12:46:02;;;;;;;5.10;2.55;;;36.00;87.20;;;;;;4884452;29;20055;-82
2022/07/14 12:48:32;;;;;;;3.20;2.33;;;36.00;88.60;;;;;;4875831;29;20124;-82
2022/07/14 12:51:21;;;;;;;4.78;2.50;;;35.70;89.40;;;;;;4880487;29;20063;-82
2022/07/14 12:54:00;;;;;;;2.72;2.20;;;35.70;90.10;;;;;;4873568;29;20445;-82
2022/07/14 12:56:31;;;;;;;3.88;2.17;;;35.60;89.50;;;;;;4874542;29;20053;-82
2022/07/14 12:59:03;;;;;;;2.92;2.10;;;35.70;89.20;;;;;;4873913;29;20527;-79
2022/07/14 13:01:33;;;;;;;2.90;2.50;;;35.70;89.50;;;;;;4870687;29;20055;-79
2022/07/14 13:04:02;;;;;;;3.28;2.13;;;35.80;89.20;;;;;;4870203;29;20103;-79
2022/07/14 13:06:42;;;;;;;4.45;2.33;;;35.60;89.20;;;;;;4865132;29;20734;-79
2022/07/14 13:09:16;;;;;;;2.38;1.92;;;35.60;89.00;;;;;;4870142;29;20045;-81
2022/07/14 13:11:45;;;;;;;3.03;2.50;;;35.80;88.30;;;;;;4883725;29;20460;-80
2022/07/14 13:14:15;;;;;;;5.38;2.20;;;35.70;88.90;;;;;;4871713;29;20049;-79
2022/07/14 13:16:45;;;;;;;3.28;2.60;;;35.90;88.90;;;;;;4882695;29;20056;-78
2022/07/14 13:19:18;;;;;;;2.92;2.30;;;35.90;88.80;;;;;;4873011;29;20045;-81
2022/07/14 13:22:03;;;;;;;3.22;2.30;;;36.00;88.60;;;;;;4871544;29;20056;-82
2022/07/14 13:24:43;;;;;;;4.15;2.58;;;36.20;88.70;;;;;;4799650;29;20123;-83